sensor_id;sensor_type;location;lat;lon;timestamp;P1;P4;P2;P0;N10;N4;N25;N1;N05;TS
78540;SPS30;67835;51.968;5.646;2023-11-19T00:00:36;6.1;6.1;6.1;5.8;;;;1.0;119.0;
78540;SPS30;67835;51.968;5.646;2023-11-19T00:03:05;5.4;5.4;5.4;5.1;;;;1.0;121.0;
78540;SPS30;67835;51.968;5.646;2023-11-19T00:05:34;5.9;5.9;5.9;5.6;;;;1.0;121.0;
78540;SPS30;67835;51.968;5.646;2023-11-19T00:08:03;5.2;5.2;5.2;5.0;;;;1.0;118.0;
78540;SPS30;67835;51.968;5.646;2023-11-19T00:10:32;5.5;5.5;5.5;5.2;;;;1.0;115.0;
78540;SPS30;67835;51.968;5.646;2023-11-19T00:13:00;5.6;5.6;5.6;5.4;;;;1.0;111.0;
78540;SPS30;67835;51.968;5.646;2023-11-19T00:15:31;5.9;5.9;5.9;5.6;;;;1.0;100.0;
78540;SPS30;67835;51.968;5.646;2023-11-19T00:17:59;5.2;5.2;5.2;5.0;;;;1.0;92.0;
78540;SPS30;67835;51.968;5.646;2023-11-19T00:20:31;4.7;4.7;4.7;4.5;;;;1.0;88.0;
78540;SPS30;67835;51.968;5.646;2023-11-19T00:23:00;4.5;4.5;4.5;4.2;;;;1.0;88.0;
78540;SPS30;67835;51.968;5.646;2023-11-19T00:25:30;4.7;4.7;4.7;4.5;;;;1.0;84.0;
78540;SPS30;67835;51.968;5.646;2023-11-19T00:27:59;4.9;4.9;4.9;4.7;;;;1.0;84.0;
78540;SPS30;67835;51.968;5.646;2023-11-19T00:30:27;4.0;4.0;4.0;3.8;;;;1.0;83.0;
78540;SPS30;67835;51.968;5.646;2023-11-19T00:32:57;3.9;3.9;3.8;3.5;;;;1.0;76.0;
78540;SPS30;67835;51.968;5.646;2023-11-19T00:35:26;4.8;4.7;4.5;4.1;;;;1.0;73.0;
78540;SPS30;67835;51.968;5.646;2023-11-19T00:37:58;5.2;5.0;4.8;4.3;;;;1.0;73.0;
78540;SPS30;67835;51.968;5.646;2023-11-19T00:40:26;4.9;4.7;4.5;4.1;;;;1.0;72.0;
78540;SPS30;67835;51.968;5.646;2023-11-19T00:42:55;5.4;5.3;5.0;4.4;;;;1.0;77.0;
78540;SPS30;67835;51.968;5.646;2023-11-19T00:45:24;5.3;5.2;5.0;4.5;;;;1.0;76.0;
78540;SPS30;67835;51.968;5.646;2023-11-19T00:47:54;5.1;5.0;4.7;4.2;;;;1.0;74.0;
78540;SPS30;67835;51.968;5.646;2023-11-19T00:50:25;5.4;5.2;4.9;4.3;;;;1.0;74.0;
78540;SPS30;67835;51.968;5.646;2023-11-19T00:52:55;5.4;5.3;5.0;4.4;;;;1.0;71.0;
78540;SPS30;67835;51.968;5.646;2023-11-19T00:55:25;5.7;5.6;5.3;4.7;;;;1.0;70.0;
78540;SPS30;67835;51.968;5.646;2023-11-19T00:57:55;5.3;5.1;4.8;4.3;;;;1.0;68.0;
78540;SPS30;67835;51.968;5.646;2023-11-19T01:00:24;5.8;5.7;5.4;4.8;;;;1.0;66.0;
78540;SPS30;67835;51.968;5.646;2023-11-19T01:02:54;5.7;5.5;5.2;4.6;;;;1.0;66.0;
78540;SPS30;67835;51.968;5.646;2023-11-19T01:05:22;5.5;5.3;5.0;4.4;;;;1.0;65.0;
78540;SPS30;67835;51.968;5.646;2023-11-19T01:07:56;6.6;6.4;5.9;5.1;;;;1.0;59.0;
78540;SPS30;67835;51.968;5.646;2023-11-19T01:10:27;5.7;5.5;4.9;4.1;;;;1.0;55.0;
78540;SPS30;67835;51.968;5.646;2023-11-19T01:12:55;6.7;6.4;5.8;4.7;;;;1.0;57.0;
78540;SPS30;67835;51.968;5.646;2023-11-19T01:15:24;6.6;6.3;5.5;4.4;;;;1.0;57.0;
78540;SPS30;67835;51.968;5.646;2023-11-19T01:17:52;5.9;5.6;5.0;4.0;;;;1.0;57.0;
78540;SPS30;67835;51.968;5.646;2023-11-19T01:20:21;6.8;6.4;5.6;4.5;;;;1.0;58.0;
78540;SPS30;67835;51.968;5.646;2023-11-19T01:22:50;6.7;6.4;5.6;4.4;;;;1.0;58.0;
78540;SPS30;67835;51.968;5.646;2023-11-19T01:25:19;7.8;7.3;6.4;5.0;;;;1.0;57.0;
78540;SPS30;67835;51.968;5.646;2023-11-19T01:27:48;6.3;5.9;5.1;4.0;;;;1.0;55.0;
78540;SPS30;67835;51.968;5.646;2023-11-19T01:30:17;7.0;6.5;5.6;4.2;;;;1.0;54.0;
78540;SPS30;67835;51.968;5.646;2023-11-19T01:32:45;7.1;6.6;5.6;4.1;;;;1.0;46.0;
78540;SPS30;67835;51.968;5.646;2023-11-19T01:35:14;7.4;6.9;5.8;4.3;;;;1.0;45.0;
78540;SPS30;67835;51.968;5.646;2023-11-19T01:37:44;7.1;6.6;5.5;4.0;;;;1.0;45.0;
78540;SPS30;67835;51.968;5.646;2023-11-19T01:40:13;7.4;6.9;5.9;4.4;;;;1.0;45.0;
78540;SPS30;67835;51.968;5.646;2023-11-19T01:42:43;7.3;6.8;5.8;4.3;;;;1.0;45.0;
78540;SPS30;67835;51.968;5.646;2023-11-19T01:45:16;8.1;7.5;6.2;4.4;;;;1.0;45.0;
78540;SPS30;67835;51.968;5.646;2023-11-19T01:47:57;7.5;7.0;5.8;4.2;;;;1.0;46.0;
78540;SPS30;67835;51.968;5.646;2023-11-19T01:50:27;6.9;6.4;5.3;3.8;;;;1.0;46.0;
78540;SPS30;67835;51.968;5.646;2023-11-19T01:53:01;8.3;7.6;6.3;4.5;;;;1.0;46.0;
78540;SPS30;67835;51.968;5.646;2023-11-19T01:55:30;7.8;7.1;5.7;3.8;;;;1.0;52.0;
78540;SPS30;67835;51.968;5.646;2023-11-19T01:58:01;8.7;7.9;6.4;4.3;;;;1.0;53.0;
78540;SPS30;67835;51.968;5.646;2023-11-19T02:00:30;7.8;7.1;5.7;3.9;;;;1.0;53.0;
78540;SPS30;67835;51.968;5.646;2023-11-19T02:03:01;8.4;7.7;6.1;4.0;;;;1.0;50.0;
78540;SPS30;67835;51.968;5.646;2023-11-19T02:05:33;8.4;7.6;5.9;3.7;;;;1.0;49.0;
78540;SPS30;67835;51.968;5.646;2023-11-19T02:08:03;9.7;8.7;6.7;4.1;;;;1.0;45.0;
78540;SPS30;67835;51.968;5.646;2023-11-19T02:10:32;8.5;7.7;5.9;3.5;;;;1.0;39.0;
78540;SPS30;67835;51.968;5.646;2023-11-19T02:13:03;7.9;7.1;5.4;3.2;;;;1.0;36.0;
78540;SPS30;67835;51.968;5.646;2023-11-19T02:15:34;10.0;9.0;6.8;3.9;;;;1.0;35.0;
78540;SPS30;67835;51.968;5.646;2023-11-19T02:18:19;9.0;8.1;6.1;3.6;;;;1.0;35.0;
78540;SPS30;67835;51.968;5.646;2023-11-19T02:20:49;10.5;9.4;7.0;3.9;;;;1.0;34.0;
78540;SPS30;67835;51.968;5.646;2023-11-19T02:23:19;11.0;9.8;7.2;3.9;;;;1.0;32.0;
78540;SPS30;67835;51.968;5.646;2023-11-19T02:25:51;9.2;8.2;6.2;3.6;;;;1.0;31.0;
78540;SPS30;67835;51.968;5.646;2023-11-19T02:28:35;10.1;9.0;6.7;3.7;;;;1.0;30.0;
78540;SPS30;67835;51.968;5.646;2023-11-19T02:31:07;12.2;10.9;8.1;4.4;;;;1.0;29.0;
78540;SPS30;67835;51.968;5.646;2023-11-19T02:33:37;12.1;10.8;7.8;4.0;;;;1.0;29.0;
78540;SPS30;67835;51.968;5.646;2023-11-19T02:36:07;11.8;10.5;7.8;4.4;;;;1.0;29.0;
78540;SPS30;67835;51.968;5.646;2023-11-19T02:38:37;11.6;10.3;7.6;4.1;;;;1.0;28.0;
78540;SPS30;67835;51.968;5.646;2023-11-19T02:41:06;13.1;11.7;8.7;4.8;;;;1.0;28.0;
78540;SPS30;67835;51.968;5.646;2023-11-19T02:43:36;13.2;11.8;8.7;4.7;;;;1.0;27.0;
78540;SPS30;67835;51.968;5.646;2023-11-19T02:46:06;13.4;11.9;8.7;4.7;;;;1.0;24.0;
78540;SPS30;67835;51.968;5.646;2023-11-19T02:48:35;9.8;8.7;6.4;3.4;;;;1.0;21.0;
78540;SPS30;67835;51.968;5.646;2023-11-19T02:51:04;12.5;11.1;8.1;4.2;;;;1.0;20.0;
78540;SPS30;67835;51.968;5.646;2023-11-19T02:53:37;15.3;13.5;9.7;4.9;;;;2.0;20.0;
78540;SPS30;67835;51.968;5.646;2023-11-19T02:56:07;12.7;11.2;8.1;4.2;;;;2.0;19.0;
78540;SPS30;67835;51.968;5.646;2023-11-19T02:58:45;16.1;14.2;10.2;5.0;;;;2.0;18.0;
78540;SPS30;67835;51.968;5.646;2023-11-19T03:01:20;12.5;11.0;8.0;4.1;;;;2.0;16.0;
78540;SPS30;67835;51.968;5.646;2023-11-19T03:03:56;14.6;12.9;9.4;4.8;;;;2.0;16.0;
78540;SPS30;67835;51.968;5.646;2023-11-19T03:06:27;13.9;12.2;8.8;4.3;;;;2.0;15.0;
78540;SPS30;67835;51.968;5.646;2023-11-19T03:08:55;14.6;12.9;9.1;4.3;;;;2.0;14.0;
78540;SPS30;67835;51.968;5.646;2023-11-19T03:11:24;16.1;14.2;10.1;5.0;;;;2.0;13.0;
78540;SPS30;67835;51.968;5.646;2023-11-19T03:13:53;14.2;12.6;9.1;4.6;;;;2.0;13.0;
78540;SPS30;67835;51.968;5.646;2023-11-19T03:16:21;15.9;14.1;10.1;5.0;;;;2.0;13.0;
78540;SPS30;67835;51.968;5.646;2023-11-19T03:18:50;14.2;12.5;8.9;4.4;;;;2.0;13.0;
78540;SPS30;67835;51.968;5.646;2023-11-19T03:21:19;15.3;13.6;9.8;5.0;;;;2.0;13.0;
78540;SPS30;67835;51.968;5.646;2023-11-19T03:23:47;18.1;15.9;11.5;5.7;;;;2.0;13.0;
78540;SPS30;67835;51.968;5.646;2023-11-19T03:26:16;15.9;14.0;10.0;5.0;;;;2.0;13.0;
78540;SPS30;67835;51.968;5.646;2023-11-19T03:28:44;16.5;14.6;10.6;5.4;;;;2.0;13.0;
78540;SPS30;67835;51.968;5.646;2023-11-19T03:31:13;14.3;12.6;9.0;4.4;;;;2.0;12.0;
78540;SPS30;67835;51.968;5.646;2023-11-19T03:33:42;16.4;14.5;10.3;5.0;;;;2.0;12.0;
78540;SPS30;67835;51.968;5.646;2023-11-19T03:36:11;20.8;18.2;12.8;5.9;;;;2.0;11.0;
78540;SPS30;67835;51.968;5.646;2023-11-19T03:38:40;18.4;16.2;11.5;5.5;;;;2.0;11.0;
78540;SPS30;67835;51.968;5.646;2023-11-19T03:41:13;15.6;13.7;9.7;4.7;;;;2.0;10.0;
78540;SPS30;67835;51.968;5.646;2023-11-19T03:43:43;17.7;15.6;11.0;5.2;;;;2.0;9.0;
78540;SPS30;67835;51.968;5.646;2023-11-19T03:46:19;16.7;14.7;10.4;5.0;;;;2.0;9.0;
78540;SPS30;67835;51.968;5.646;2023-11-19T03:48:49;14.6;12.9;9.3;4.6;;;;2.0;8.0;
78540;SPS30;67835;51.968;5.646;2023-11-19T03:51:18;19.1;16.7;11.8;5.5;;;;2.0;8.0;
78540;SPS30;67835;51.968;5.646;2023-11-19T03:53:46;16.3;14.3;10.1;4.7;;;;2.0;8.0;
78540;SPS30;67835;51.968;5.646;2023-11-19T03:56:15;17.8;15.7;11.1;5.3;;;;2.0;8.0;
78540;SPS30;67835;51.968;5.646;2023-11-19T03:58:44;16.0;14.0;10.0;4.8;;;;3.0;8.0;
78540;SPS30;67835;51.968;5.646;2023-11-19T04:01:12;17.8;15.6;11.1;5.3;;;;3.0;8.0;
78540;SPS30;67835;51.968;5.646;2023-11-19T04:03:41;20.2;18.0;13.4;7.5;;;;3.0;8.0;
78540;SPS30;67835;51.968;5.646;2023-11-19T04:06:10;22.9;20.7;16.1;10.0;;;;3.0;8.0;
78540;SPS30;67835;51.968;5.646;2023-11-19T04:08:38;21.2;19.6;16.3;11.6;;;;3.0;8.0;
78540;SPS30;67835;51.968;5.646;2023-11-19T04:11:07;17.4;16.5;14.6;11.8;;;;3.0;8.0;
78540;SPS30;67835;51.968;5.646;2023-11-19T04:13:36;21.0;20.3;18.7;16.0;;;;3.0;8.0;
78540;SPS30;67835;51.968;5.646;2023-11-19T04:16:05;21.4;20.8;19.6;17.3;;;;3.0;9.0;
78540;SPS30;67835;51.968;5.646;2023-11-19T04:18:34;18.0;17.2;15.6;12.9;;;;3.0;10.0;
78540;SPS30;67835;51.968;5.646;2023-11-19T04:21:05;16.3;15.3;13.3;10.2;;;;3.0;10.0;
78540;SPS30;67835;51.968;5.646;2023-11-19T04:23:34;15.6;14.3;11.7;8.0;;;;3.0;10.0;
78540;SPS30;67835;51.968;5.646;2023-11-19T04:26:03;16.9;15.2;11.7;7.1;;;;3.0;9.0;
78540;SPS30;67835;51.968;5.646;2023-11-19T04:28:33;14.1;12.7;9.7;5.8;;;;3.0;7.0;
78540;SPS30;67835;51.968;5.646;2023-11-19T04:31:01;17.3;15.3;11.1;5.7;;;;3.0;6.0;
78540;SPS30;67835;51.968;5.646;2023-11-19T04:33:30;20.0;17.6;12.4;5.8;;;;3.0;5.0;
78540;SPS30;67835;51.968;5.646;2023-11-19T04:36:01;19.6;17.2;12.1;5.7;;;;3.0;5.0;
78540;SPS30;67835;51.968;5.646;2023-11-19T04:38:30;17.9;15.7;11.0;5.0;;;;3.0;4.0;
78540;SPS30;67835;51.968;5.646;2023-11-19T04:40:58;19.8;17.4;12.2;5.6;;;;4.0;4.0;
78540;SPS30;67835;51.968;5.646;2023-11-19T04:43:28;17.0;14.9;10.4;4.6;;;;4.0;4.0;
78540;SPS30;67835;51.968;5.646;2023-11-19T04:45:57;19.6;17.1;11.9;5.2;;;;4.0;4.0;
78540;SPS30;67835;51.968;5.646;2023-11-19T04:48:26;17.5;15.3;10.8;4.9;;;;4.0;4.0;
78540;SPS30;67835;51.968;5.646;2023-11-19T04:50:54;19.9;17.4;12.1;5.4;;;;4.0;4.0;
78540;SPS30;67835;51.968;5.646;2023-11-19T04:53:23;19.1;16.8;11.9;5.6;;;;4.0;4.0;
78540;SPS30;67835;51.968;5.646;2023-11-19T04:55:51;21.2;18.5;12.8;5.7;;;;4.0;4.0;
78540;SPS30;67835;51.968;5.646;2023-11-19T04:58:20;18.9;16.5;11.5;5.2;;;;4.0;4.0;
78540;SPS30;67835;51.968;5.646;2023-11-19T05:00:48;21.5;18.8;13.1;5.8;;;;4.0;4.0;
78540;SPS30;67835;51.968;5.646;2023-11-19T05:03:17;18.8;16.4;11.4;5.0;;;;4.0;4.0;
78540;SPS30;67835;51.968;5.646;2023-11-19T05:05:46;18.1;15.9;11.1;5.1;;;;4.0;4.0;
78540;SPS30;67835;51.968;5.646;2023-11-19T05:08:15;18.5;16.2;11.4;5.3;;;;4.0;4.0;
78540;SPS30;67835;51.968;5.646;2023-11-19T05:10:43;18.4;16.1;11.3;5.2;;;;4.0;4.0;
78540;SPS30;67835;51.968;5.646;2023-11-19T05:13:12;19.4;16.9;11.6;4.9;;;;5.0;4.0;
78540;SPS30;67835;51.968;5.646;2023-11-19T05:15:41;18.7;16.4;11.5;5.2;;;;5.0;4.0;
78540;SPS30;67835;51.968;5.646;2023-11-19T05:18:09;18.9;16.5;11.5;5.2;;;;5.0;4.0;
78540;SPS30;67835;51.968;5.646;2023-11-19T05:20:40;21.3;18.6;12.9;5.7;;;;5.0;4.0;
78540;SPS30;67835;51.968;5.646;2023-11-19T05:23:08;23.8;20.8;14.4;6.4;;;;5.0;5.0;
78540;SPS30;67835;51.968;5.646;2023-11-19T05:25:38;21.3;18.6;13.0;5.9;;;;5.0;5.0;
78540;SPS30;67835;51.968;5.646;2023-11-19T05:28:06;18.4;16.2;11.5;5.6;;;;5.0;5.0;
78540;SPS30;67835;51.968;5.646;2023-11-19T05:30:35;18.2;16.0;11.4;5.5;;;;5.0;6.0;
78540;SPS30;67835;51.968;5.646;2023-11-19T05:33:03;18.5;16.3;11.5;5.4;;;;5.0;6.0;
78540;SPS30;67835;51.968;5.646;2023-11-19T05:35:32;19.2;16.8;11.7;5.1;;;;5.0;6.0;
78540;SPS30;67835;51.968;5.646;2023-11-19T05:38:03;23.7;20.7;14.2;6.0;;;;5.0;5.0;
78540;SPS30;67835;51.968;5.646;2023-11-19T05:40:32;18.9;16.6;11.7;5.5;;;;5.0;5.0;
78540;SPS30;67835;51.968;5.646;2023-11-19T05:43:00;17.4;15.3;11.0;5.5;;;;5.0;5.0;
78540;SPS30;67835;51.968;5.646;2023-11-19T05:45:29;17.3;15.3;10.9;5.3;;;;5.0;6.0;
78540;SPS30;67835;51.968;5.646;2023-11-19T05:47:58;21.7;18.9;13.1;5.7;;;;5.0;6.0;
78540;SPS30;67835;51.968;5.646;2023-11-19T05:50:30;20.5;17.9;12.5;5.7;;;;5.0;6.0;
78540;SPS30;67835;51.968;5.646;2023-11-19T05:52:59;21.0;18.4;12.7;5.4;;;;5.0;6.0;
78540;SPS30;67835;51.968;5.646;2023-11-19T05:55:27;22.4;19.6;13.5;5.9;;;;5.0;6.0;
78540;SPS30;67835;51.968;5.646;2023-11-19T05:57:57;19.6;17.2;12.2;5.8;;;;5.0;6.0;
78540;SPS30;67835;51.968;5.646;2023-11-19T06:00:26;18.9;16.7;11.9;5.9;;;;5.0;6.0;
78540;SPS30;67835;51.968;5.646;2023-11-19T06:02:55;19.7;17.3;12.1;5.5;;;;5.0;6.0;
78540;SPS30;67835;51.968;5.646;2023-11-19T06:05:23;19.8;17.4;12.2;5.6;;;;5.0;6.0;
78540;SPS30;67835;51.968;5.646;2023-11-19T06:07:52;23.8;20.8;14.4;6.2;;;;5.0;6.0;
78540;SPS30;67835;51.968;5.646;2023-11-19T06:10:20;21.7;18.9;12.9;5.4;;;;5.0;6.0;
78540;SPS30;67835;51.968;5.646;2023-11-19T06:12:50;22.3;19.4;13.3;5.6;;;;5.0;6.0;
78540;SPS30;67835;51.968;5.646;2023-11-19T06:15:22;20.8;18.2;12.5;5.4;;;;5.0;5.0;
78540;SPS30;67835;51.968;5.646;2023-11-19T06:17:50;21.1;18.4;12.6;5.3;;;;5.0;6.0;
78540;SPS30;67835;51.968;5.646;2023-11-19T06:20:19;22.4;19.5;13.5;5.8;;;;5.0;6.0;
78540;SPS30;67835;51.968;5.646;2023-11-19T06:22:48;21.1;18.4;12.6;5.3;;;;5.0;5.0;
78540;SPS30;67835;51.968;5.646;2023-11-19T06:25:16;21.1;18.4;12.7;5.4;;;;5.0;5.0;
78540;SPS30;67835;51.968;5.646;2023-11-19T06:27:45;22.0;19.3;13.5;6.2;;;;5.0;5.0;
78540;SPS30;67835;51.968;5.646;2023-11-19T06:30:14;20.9;18.2;12.6;5.5;;;;5.0;5.0;
78540;SPS30;67835;51.968;5.646;2023-11-19T06:32:42;17.1;15.0;10.4;4.6;;;;5.0;5.0;
78540;SPS30;67835;51.968;5.646;2023-11-19T06:35:11;21.5;18.7;12.9;5.5;;;;6.0;5.0;
78540;SPS30;67835;51.968;5.646;2023-11-19T06:37:42;19.8;17.4;12.1;5.4;;;;6.0;5.0;
78540;SPS30;67835;51.968;5.646;2023-11-19T06:40:11;24.4;21.3;14.6;6.2;;;;6.0;5.0;
78540;SPS30;67835;51.968;5.646;2023-11-19T06:42:41;20.3;17.7;12.4;5.6;;;;6.0;5.0;
78540;SPS30;67835;51.968;5.646;2023-11-19T06:45:10;19.4;17.0;11.8;5.3;;;;6.0;5.0;
78540;SPS30;67835;51.968;5.646;2023-11-19T06:47:39;20.5;18.0;12.6;5.9;;;;6.0;5.0;
78540;SPS30;67835;51.968;5.646;2023-11-19T06:50:08;20.0;17.5;12.3;5.6;;;;6.0;5.0;
78540;SPS30;67835;51.968;5.646;2023-11-19T06:52:38;18.3;16.0;11.1;4.9;;;;6.0;5.0;
78540;SPS30;67835;51.968;5.646;2023-11-19T06:55:09;22.0;19.2;13.3;5.8;;;;6.0;6.0;
78540;SPS30;67835;51.968;5.646;2023-11-19T06:57:38;21.6;18.9;13.1;5.7;;;;6.0;6.0;
78540;SPS30;67835;51.968;5.646;2023-11-19T07:00:09;18.6;16.2;11.3;5.0;;;;6.0;7.0;
78540;SPS30;67835;51.968;5.646;2023-11-19T07:02:38;20.2;17.7;12.3;5.4;;;;6.0;7.0;
78540;SPS30;67835;51.968;5.646;2023-11-19T07:05:08;18.4;16.1;11.2;5.0;;;;6.0;8.0;
78540;SPS30;67835;51.968;5.646;2023-11-19T07:07:39;18.4;16.2;11.5;5.4;;;;6.0;8.0;
78540;SPS30;67835;51.968;5.646;2023-11-19T07:10:10;18.8;16.4;11.5;5.2;;;;6.0;9.0;
78540;SPS30;67835;51.968;5.646;2023-11-19T07:12:38;20.3;17.7;12.4;5.6;;;;6.0;10.0;
78540;SPS30;67835;51.968;5.646;2023-11-19T07:15:09;19.3;16.9;12.0;5.6;;;;6.0;12.0;
78540;SPS30;67835;51.968;5.646;2023-11-19T07:17:38;19.2;16.9;11.8;5.3;;;;6.0;13.0;
78540;SPS30;67835;51.968;5.646;2023-11-19T07:20:08;19.1;16.8;11.8;5.5;;;;5.0;14.0;
78540;SPS30;67835;51.968;5.646;2023-11-19T07:22:41;20.3;17.9;12.6;6.0;;;;5.0;19.0;
78540;SPS30;67835;51.968;5.646;2023-11-19T07:25:12;16.9;14.8;10.4;4.8;;;;5.0;23.0;
78540;SPS30;67835;51.968;5.646;2023-11-19T07:27:41;21.8;19.0;13.1;5.6;;;;5.0;27.0;
78540;SPS30;67835;51.968;5.646;2023-11-19T07:30:11;19.8;17.3;12.0;5.3;;;;5.0;26.0;
78540;SPS30;67835;51.968;5.646;2023-11-19T07:32:39;21.1;18.5;13.0;6.0;;;;5.0;25.0;
78540;SPS30;67835;51.968;5.646;2023-11-19T07:35:09;20.7;18.1;12.7;5.9;;;;5.0;24.0;
78540;SPS30;67835;51.968;5.646;2023-11-19T07:37:38;20.2;17.6;12.2;5.4;;;;5.0;23.0;
78540;SPS30;67835;51.968;5.646;2023-11-19T07:40:08;21.0;18.4;12.8;5.6;;;;5.0;22.0;
78540;SPS30;67835;51.968;5.646;2023-11-19T07:42:40;17.4;15.3;10.8;5.0;;;;5.0;22.0;
78540;SPS30;67835;51.968;5.646;2023-11-19T07:45:09;19.3;17.0;12.0;5.6;;;;5.0;22.0;
78540;SPS30;67835;51.968;5.646;2023-11-19T07:47:38;18.4;16.1;11.2;5.1;;;;5.0;21.0;
78540;SPS30;67835;51.968;5.646;2023-11-19T07:50:07;18.0;15.8;11.1;5.2;;;;5.0;20.0;
78540;SPS30;67835;51.968;5.646;2023-11-19T07:52:36;20.4;17.8;12.4;5.4;;;;5.0;19.0;
78540;SPS30;67835;51.968;5.646;2023-11-19T07:55:06;20.7;18.1;12.5;5.5;;;;5.0;19.0;
78540;SPS30;67835;51.968;5.646;2023-11-19T07:57:36;21.6;18.9;13.2;6.0;;;;5.0;18.0;
78540;SPS30;67835;51.968;5.646;2023-11-19T08:00:05;21.8;19.1;13.5;6.3;;;;5.0;18.0;
78540;SPS30;67835;51.968;5.646;2023-11-19T08:02:38;19.4;17.0;12.0;5.6;;;;5.0;18.0;
78540;SPS30;67835;51.968;5.646;2023-11-19T08:05:07;18.0;15.8;11.2;5.4;;;;5.0;18.0;
78540;SPS30;67835;51.968;5.646;2023-11-19T08:07:37;17.3;15.2;10.8;5.1;;;;5.0;18.0;
78540;SPS30;67835;51.968;5.646;2023-11-19T08:10:07;22.0;19.3;13.4;6.0;;;;5.0;18.0;
78540;SPS30;67835;51.968;5.646;2023-11-19T08:12:37;24.0;20.9;14.5;6.3;;;;5.0;18.0;
78540;SPS30;67835;51.968;5.646;2023-11-19T08:15:06;17.5;15.4;10.9;5.1;;;;5.0;18.0;
78540;SPS30;67835;51.968;5.646;2023-11-19T08:17:36;23.2;20.3;14.1;6.1;;;;4.0;18.0;
78540;SPS30;67835;51.968;5.646;2023-11-19T08:20:06;21.9;19.1;13.2;5.7;;;;4.0;19.0;
78540;SPS30;67835;51.968;5.646;2023-11-19T08:22:37;18.3;16.1;11.2;5.1;;;;4.0;20.0;
78540;SPS30;67835;51.968;5.646;2023-11-19T08:25:07;18.7;16.4;11.6;5.5;;;;4.0;21.0;
78540;SPS30;67835;51.968;5.646;2023-11-19T08:27:36;21.8;19.0;13.3;6.0;;;;4.0;21.0;
78540;SPS30;67835;51.968;5.646;2023-11-19T08:30:05;19.0;16.7;11.8;5.5;;;;4.0;20.0;
78540;SPS30;67835;51.968;5.646;2023-11-19T08:32:34;17.9;15.7;11.1;5.3;;;;4.0;19.0;
78540;SPS30;67835;51.968;5.646;2023-11-19T08:35:03;18.6;16.3;11.4;5.2;;;;4.0;19.0;
78540;SPS30;67835;51.968;5.646;2023-11-19T08:37:34;17.9;15.7;11.0;5.1;;;;4.0;18.0;
78540;SPS30;67835;51.968;5.646;2023-11-19T08:40:04;18.2;16.0;11.3;5.2;;;;4.0;18.0;
78540;SPS30;67835;51.968;5.646;2023-11-19T08:42:33;20.1;17.6;12.2;5.4;;;;4.0;17.0;
78540;SPS30;67835;51.968;5.646;2023-11-19T08:45:03;18.2;16.0;11.2;5.1;;;;4.0;17.0;
78540;SPS30;67835;51.968;5.646;2023-11-19T08:47:32;15.6;13.7;9.6;4.4;;;;3.0;17.0;
78540;SPS30;67835;51.968;5.646;2023-11-19T08:50:01;18.2;15.9;11.1;5.0;;;;3.0;17.0;
78540;SPS30;67835;51.968;5.646;2023-11-19T08:52:30;18.9;16.4;11.2;4.7;;;;3.0;18.0;
78540;SPS30;67835;51.968;5.646;2023-11-19T08:54:59;19.2;16.7;11.6;5.1;;;;3.0;18.0;
78540;SPS30;67835;51.968;5.646;2023-11-19T08:57:28;16.6;14.5;10.1;4.6;;;;3.0;18.0;
78540;SPS30;67835;51.968;5.646;2023-11-19T08:59:56;19.6;17.0;11.7;4.9;;;;3.0;18.0;
78540;SPS30;67835;51.968;5.646;2023-11-19T09:02:25;18.9;16.5;11.5;5.1;;;;3.0;18.0;
78540;SPS30;67835;51.968;5.646;2023-11-19T09:04:54;19.2;16.8;11.8;5.3;;;;3.0;18.0;
78540;SPS30;67835;51.968;5.646;2023-11-19T09:07:22;20.5;17.9;12.5;5.6;;;;3.0;18.0;
78540;SPS30;67835;51.968;5.646;2023-11-19T09:09:51;19.4;17.0;11.7;5.1;;;;3.0;18.0;
78540;SPS30;67835;51.968;5.646;2023-11-19T09:12:20;18.4;16.2;11.4;5.3;;;;3.0;18.0;
78540;SPS30;67835;51.968;5.646;2023-11-19T09:14:48;18.0;15.8;11.2;5.3;;;;3.0;21.0;
78540;SPS30;67835;51.968;5.646;2023-11-19T09:17:17;17.0;14.9;10.5;4.9;;;;3.0;22.0;
78540;SPS30;67835;51.968;5.646;2023-11-19T09:19:45;16.7;14.7;10.5;5.2;;;;2.0;23.0;
78540;SPS30;67835;51.968;5.646;2023-11-19T09:22:14;21.7;19.0;13.3;6.0;;;;2.0;25.0;
78540;SPS30;67835;51.968;5.646;2023-11-19T09:24:42;20.1;17.6;12.2;5.4;;;;2.0;25.0;
78540;SPS30;67835;51.968;5.646;2023-11-19T09:27:12;16.5;14.5;10.3;4.9;;;;2.0;24.0;
78540;SPS30;67835;51.968;5.646;2023-11-19T09:29:40;17.1;15.1;10.9;5.5;;;;2.0;23.0;
78540;SPS30;67835;51.968;5.646;2023-11-19T09:32:09;18.4;16.1;11.2;5.0;;;;2.0;24.0;
78540;SPS30;67835;51.968;5.646;2023-11-19T09:34:39;16.9;14.8;10.4;4.9;;;;2.0;25.0;
78540;SPS30;67835;51.968;5.646;2023-11-19T09:37:08;18.7;16.3;11.3;4.9;;;;2.0;26.0;
78540;SPS30;67835;51.968;5.646;2023-11-19T09:39:36;18.8;16.5;11.5;5.2;;;;2.0;27.0;
78540;SPS30;67835;51.968;5.646;2023-11-19T09:42:05;17.6;15.5;10.9;5.0;;;;2.0;28.0;
78540;SPS30;67835;51.968;5.646;2023-11-19T09:44:34;17.5;15.4;10.9;5.1;;;;2.0;29.0;
78540;SPS30;67835;51.968;5.646;2023-11-19T09:47:03;17.3;15.1;10.6;4.9;;;;2.0;61.0;
78540;SPS30;67835;51.968;5.646;2023-11-19T09:49:33;17.6;15.5;11.0;5.3;;;;2.0;47.0;
78540;SPS30;67835;51.968;5.646;2023-11-19T09:52:05;17.5;15.4;11.0;5.3;;;;2.0;45.0;
78540;SPS30;67835;51.968;5.646;2023-11-19T09:54:36;16.2;14.3;10.2;5.0;;;;1.0;44.0;
78540;SPS30;67835;51.968;5.646;2023-11-19T09:57:05;16.8;14.7;10.3;4.7;;;;1.0;44.0;
78540;SPS30;67835;51.968;5.646;2023-11-19T09:59:37;15.1;13.3;9.6;4.8;;;;1.0;45.0;
78540;SPS30;67835;51.968;5.646;2023-11-19T10:02:08;14.9;13.2;9.6;4.9;;;;1.0;45.0;
78540;SPS30;67835;51.968;5.646;2023-11-19T10:04:37;17.5;15.5;11.0;5.3;;;;1.0;44.0;
78540;SPS30;67835;51.968;5.646;2023-11-19T10:07:12;16.3;14.3;10.2;4.9;;;;1.0;43.0;
78540;SPS30;67835;51.968;5.646;2023-11-19T10:09:40;16.2;14.2;9.9;4.5;;;;1.0;42.0;
78540;SPS30;67835;51.968;5.646;2023-11-19T10:12:10;18.0;15.8;10.9;4.8;;;;1.0;40.0;
78540;SPS30;67835;51.968;5.646;2023-11-19T10:14:38;16.0;14.0;9.8;4.5;;;;1.0;40.0;
78540;SPS30;67835;51.968;5.646;2023-11-19T10:17:09;18.2;15.9;11.1;5.0;;;;1.0;40.0;
78540;SPS30;67835;51.968;5.646;2023-11-19T10:19:38;16.9;14.9;10.5;5.0;;;;1.0;38.0;
78540;SPS30;67835;51.968;5.646;2023-11-19T10:22:09;16.9;14.8;10.4;4.9;;;;1.0;38.0;
78540;SPS30;67835;51.968;5.646;2023-11-19T10:24:41;15.7;13.9;9.9;4.8;;;;1.0;36.0;
78540;SPS30;67835;51.968;5.646;2023-11-19T10:27:09;18.9;16.6;11.7;5.5;;;;1.0;34.0;
78540;SPS30;67835;51.968;5.646;2023-11-19T10:29:38;15.1;13.3;9.4;4.4;;;;1.0;34.0;
78540;SPS30;67835;51.968;5.646;2023-11-19T10:32:07;16.0;14.1;10.1;5.0;;;;1.0;32.0;
78540;SPS30;67835;51.968;5.646;2023-11-19T10:34:36;16.7;14.6;10.2;4.7;;;;1.0;31.0;
78540;SPS30;67835;51.968;5.646;2023-11-19T10:37:05;18.3;16.0;11.2;5.2;;;;1.0;31.0;
78540;SPS30;67835;51.968;5.646;2023-11-19T10:39:40;15.9;13.9;9.8;4.6;;;;1.0;32.0;
78540;SPS30;67835;51.968;5.646;2023-11-19T10:42:22;15.6;13.7;9.7;4.6;;;;1.0;33.0;
78540;SPS30;67835;51.968;5.646;2023-11-19T10:44:51;15.6;13.7;9.8;4.8;;;;1.0;36.0;
78540;SPS30;67835;51.968;5.646;2023-11-19T10:47:20;14.9;13.1;9.5;4.8;;;;1.0;45.0;
78540;SPS30;67835;51.968;5.646;2023-11-19T10:49:51;13.6;11.9;8.5;4.1;;;;1.0;52.0;
78540;SPS30;67835;51.968;5.646;2023-11-19T10:52:20;14.4;12.7;9.1;4.4;;;;1.0;55.0;
78540;SPS30;67835;51.968;5.646;2023-11-19T10:54:50;15.2;13.4;9.6;4.8;;;;1.0;62.0;
78540;SPS30;67835;51.968;5.646;2023-11-19T10:57:20;12.5;11.1;8.1;4.3;;;;1.0;62.0;
78540;SPS30;67835;51.968;5.646;2023-11-19T10:59:50;14.3;12.7;9.3;4.9;;;;1.0;63.0;
78540;SPS30;67835;51.968;5.646;2023-11-19T11:02:24;11.9;10.6;7.8;4.1;;;;1.0;63.0;
78540;SPS30;67835;51.968;5.646;2023-11-19T11:04:54;14.0;12.4;9.0;4.7;;;;1.0;82.0;
78540;SPS30;67835;51.968;5.646;2023-11-19T11:07:24;13.7;12.1;8.8;4.5;;;;1.0;89.0;
78540;SPS30;67835;51.968;5.646;2023-11-19T11:09:54;13.6;12.1;8.9;4.7;;;;1.0;92.0;
78540;SPS30;67835;51.968;5.646;2023-11-19T11:12:24;13.7;12.2;8.9;4.6;;;;1.0;97.0;
78540;SPS30;67835;51.968;5.646;2023-11-19T11:14:54;10.3;9.1;6.5;3.2;;;;1.0;100.0;
78540;SPS30;67835;51.968;5.646;2023-11-19T11:17:25;12.0;10.7;8.0;4.4;;;;1.0;98.0;
78540;SPS30;67835;51.968;5.646;2023-11-19T11:19:59;12.6;11.2;8.1;4.2;;;;1.0;95.0;
78540;SPS30;67835;51.968;5.646;2023-11-19T11:22:29;15.5;13.7;9.8;4.8;;;;1.0;92.0;
78540;SPS30;67835;51.968;5.646;2023-11-19T11:25:15;12.9;11.4;8.3;4.3;;;;1.0;82.0;
78540;SPS30;67835;51.968;5.646;2023-11-19T11:27:57;14.4;12.7;9.2;4.7;;;;1.0;81.0;
78540;SPS30;67835;51.968;5.646;2023-11-19T11:30:39;17.0;15.0;10.9;5.6;;;;1.0;71.0;
78540;SPS30;67835;51.968;5.646;2023-11-19T11:33:30;14.8;13.0;9.2;4.3;;;;1.0;62.0;
78540;SPS30;67835;51.968;5.646;2023-11-19T11:36:10;12.9;11.3;8.0;3.7;;;;1.0;56.0;
78540;SPS30;67835;51.968;5.646;2023-11-19T11:38:47;15.8;13.8;9.7;4.5;;;;1.0;50.0;
78540;SPS30;67835;51.968;5.646;2023-11-19T11:41:22;15.1;13.3;9.5;4.6;;;;1.0;53.0;
78540;SPS30;67835;51.968;5.646;2023-11-19T11:43:53;15.3;13.5;9.6;4.7;;;;1.0;50.0;
78540;SPS30;67835;51.968;5.646;2023-11-19T11:49:28;15.1;13.3;9.6;4.8;;;;1.0;42.0;
78540;SPS30;67835;51.968;5.646;2023-11-19T11:52:04;16.2;14.2;10.0;4.6;;;;1.0;44.0;
78540;SPS30;67835;51.968;5.646;2023-11-19T11:54:33;16.1;14.1;10.0;4.8;;;;1.0;44.0;
78540;SPS30;67835;51.968;5.646;2023-11-19T11:57:13;13.7;12.2;8.9;4.6;;;;1.0;35.0;
78540;SPS30;67835;51.968;5.646;2023-11-19T11:59:46;13.4;11.9;8.7;4.5;;;;1.0;36.0;
78540;SPS30;67835;51.968;5.646;2023-11-19T12:02:17;14.0;12.3;8.8;4.3;;;;1.0;41.0;
78540;SPS30;67835;51.968;5.646;2023-11-19T12:04:51;13.5;11.9;8.4;4.0;;;;1.0;50.0;
78540;SPS30;67835;51.968;5.646;2023-11-19T12:07:22;12.2;10.7;7.7;3.7;;;;1.0;56.0;
78540;SPS30;67835;51.968;5.646;2023-11-19T12:09:53;9.5;8.4;6.0;2.9;;;;1.0;55.0;